Time;durP1;ratioP1;P1;durP2;ratioP2;P2;SDS_P1;SDS_P2;PMS_P1;PMS_P2;Temp;Humidity;BMP_temperature;BMP_pressure;BME280_temperature;BME280_humidity;BME280_pressure;Samples;Min_cycle;Max_cycle;Signal;HPM_P1;HPM_P2
2024/02/19 00:00:30;;;;;;;;;;;;;;;8.32;83.74;99922.34;5072206;28;20315;-77
2024/02/19 00:02:56;;;;;;;;;;;;;;;8.29;84.18;99920.34;5071874;28;20010;-77
2024/02/19 00:05:23;;;;;;;;;;;;;;;8.30;84.23;99921.91;5071421;28;19958;-78
2024/02/19 00:07:48;;;;;;;;;;;;;;;8.23;84.22;99919.16;5070489;28;20388;-77
2024/02/19 00:10:13;;;;;;;;;;;;;;;8.25;84.45;99919.56;5071167;28;19916;-76
2024/02/19 00:12:38;;;;;;;;;;;;;;;8.24;84.30;99920.72;5071929;28;19923;-77
2024/02/19 00:15:05;;;;;;;;;;;;;;;8.21;84.94;99913.22;5054272;28;20017;-78
2024/02/19 00:17:31;;;;;;;;;;;;;;;8.17;84.90;99918.75;5070671;28;19913;-78
2024/02/19 00:19:56;;;;;;;;;;;;;;;8.14;85.17;99914.78;5071082;28;20403;-78
2024/02/19 00:22:21;;;;;;;;;;;;;;;8.10;85.28;99913.22;5070756;28;20310;-78
2024/02/19 00:24:46;;;;;;;;;;;;;;;8.06;85.58;99923.44;5071047;28;19973;-77
2024/02/19 00:27:12;;;;;;;;;;;;;;;8.01;86.18;99915.56;5072012;28;19916;-79
2024/02/19 00:29:37;;;;;;;;;;;;;;;7.98;86.70;99913.59;5072062;28;19912;-78
2024/02/19 00:32:02;;;;;;;;;;;;;;;7.95;86.52;99923.41;5072136;28;19917;-76
2024/02/19 00:34:28;;;;;;;;;;;;;;;7.94;86.81;99921.84;5071242;28;20362;-77
2024/02/19 00:36:54;;;;;;;;;;;;;;;7.91;87.07;99917.09;5071390;28;20403;-79
2024/02/19 00:39:19;;;;;;;;;;;;;;;7.92;87.32;99915.94;5072283;28;19965;-78
2024/02/19 00:41:45;;;;;;;;;;;;;;;7.91;87.60;99916.31;5077101;28;19983;-77
2024/02/19 00:44:10;;;;;;;;;;;;;;;7.87;87.93;99907.25;5072326;28;19912;-81
2024/02/19 00:46:35;;;;;;;;;;;;;;;7.80;88.14;99910.78;5070492;28;20487;-79
2024/02/19 00:49:00;;;;;;;;;;;;;;;7.80;88.80;99916.28;5054231;28;19920;-79
2024/02/19 00:51:26;;;;;;;;;;;;;;;7.74;89.35;99910.38;5071796;28;19961;-78
2024/02/19 00:53:51;;;;;;;;;;;;;;;7.65;89.91;99909.16;5070501;28;20641;-80
2024/02/19 00:56:16;;;;;;;;;;;;;;;7.58;90.53;99912.69;5070491;28;20030;-79
2024/02/19 00:58:41;;;;;;;;;;;;;;;7.52;90.66;99908.72;5053778;28;19932;-79
2024/02/19 01:01:07;;;;;;;;;;;;;;;7.48;90.92;99910.66;5069952;28;20003;-79
2024/02/19 01:03:32;;;;;;;;;;;;;;;7.42;91.72;99906.69;5070561;28;19912;-78
2024/02/19 01:05:57;;;;;;;;;;;;;;;7.40;91.99;99920.06;5070300;28;19912;-78
2024/02/19 01:08:22;;;;;;;;;;;;;;;7.39;93.20;99912.19;5070425;28;19977;-79
2024/02/19 01:10:49;;;;;;;;;;;;;;;7.41;93.05;99913.38;5070193;28;19960;-78
2024/02/19 01:13:15;;;;;;;;;;;;;;;7.42;93.24;99909.44;5070311;28;19912;-78
2024/02/19 01:15:40;;;;;;;;;;;;;;;7.47;93.14;99908.31;5070168;28;19919;-77
2024/02/19 01:18:06;;;;;;;;;;;;;;;7.50;93.15;99910.28;5070295;28;19916;-79
2024/02/19 01:20:31;;;;;;;;;;;;;;;7.53;93.23;99909.50;5070200;28;20003;-78
2024/02/19 01:22:57;;;;;;;;;;;;;;;7.56;92.98;99911.47;5071441;28;19912;-78
2024/02/19 01:25:24;;;;;;;;;;;;;;;7.62;92.80;99909.94;5070100;28;19912;-77
2024/02/19 01:27:49;;;;;;;;;;;;;;;7.66;92.67;99910.72;5071351;28;20014;-80
2024/02/19 01:30:15;;;;;;;;;;;;;;;7.64;92.84;99896.59;5069869;28;20008;-78
2024/02/19 01:32:40;;;;;;;;;;;;;;;7.56;93.02;99904.00;5070287;28;20384;-77
2024/02/19 01:35:08;;;;;;;;;;;;;;;7.62;93.29;99890.69;5071756;28;19981;-78
2024/02/19 01:37:33;;;;;;;;;;;;;;;7.66;93.31;99894.22;5073838;28;19995;-78
2024/02/19 01:39:58;;;;;;;;;;;;;;;7.73;92.61;99900.53;5073900;28;20003;-79
2024/02/19 01:42:24;;;;;;;;;;;;;;;7.75;92.53;99892.69;5073490;28;20311;-79
2024/02/19 01:44:49;;;;;;;;;;;;;;;7.71;92.49;99893.88;5073319;28;19920;-78
2024/02/19 01:47:14;;;;;;;;;;;;;;;7.79;92.32;99892.69;5073291;28;19969;-79
2024/02/19 01:49:40;;;;;;;;;;;;;;;7.84;92.49;99889.56;5073508;28;20384;-78
2024/02/19 01:52:06;;;;;;;;;;;;;;;7.94;91.90;99886.06;5073743;28;19919;-79
2024/02/19 01:54:32;;;;;;;;;;;;;;;8.04;91.80;99885.28;5073429;28;19920;-79
2024/02/19 01:56:57;;;;;;;;;;;;;;;8.10;90.84;99893.94;5073570;28;19912;-77
2024/02/19 01:59:24;;;;;;;;;;;;;;;8.09;90.34;99884.91;5073376;28;20014;-78
2024/02/19 02:01:50;;;;;;;;;;;;;;;8.10;89.91;99880.97;5056499;28;20006;-79
2024/02/19 02:04:17;;;;;;;;;;;;;;;8.12;90.10;99883.34;5074696;28;20411;-78
2024/02/19 02:06:43;;;;;;;;;;;;;;;8.10;89.80;99880.19;5056722;28;19916;-79
2024/02/19 02:09:09;;;;;;;;;;;;;;;7.98;90.01;99878.59;5073095;28;19921;-79
2024/02/19 02:11:35;;;;;;;;;;;;;;;7.98;90.29;99875.84;5073874;28;19916;-78
2024/02/19 02:14:00;;;;;;;;;;;;;;;7.99;90.34;99879.38;5072900;28;20418;-79
2024/02/19 02:16:26;;;;;;;;;;;;;;;7.99;90.44;99871.13;5073019;28;19951;-77
2024/02/19 02:18:55;;;;;;;;;;;;;;;7.94;90.36;99871.53;5056323;28;20384;-77
2024/02/19 02:21:20;;;;;;;;;;;;;;;7.80;91.96;99868.72;5073037;28;20407;-79
2024/02/19 02:23:46;;;;;;;;;;;;;;;7.92;91.96;99863.66;5056458;28;19908;-79
2024/02/19 02:26:12;;;;;;;;;;;;;;;7.98;90.85;99858.53;5072857;28;19916;-78
2024/02/19 02:28:37;;;;;;;;;;;;;;;7.93;91.33;99859.72;5072585;28;19919;-79
2024/02/19 02:31:03;;;;;;;;;;;;;;;7.94;91.03;99864.06;5074338;28;20257;-79
2024/02/19 02:33:28;;;;;;;;;;;;;;;7.99;91.49;99857.38;5074245;28;19918;-77
2024/02/19 02:35:53;;;;;;;;;;;;;;;8.06;91.00;99869.19;5073129;28;20395;-78
2024/02/19 02:38:19;;;;;;;;;;;;;;;7.99;91.29;99858.16;5073954;28;19998;-77
2024/02/19 02:40:44;;;;;;;;;;;;;;;7.97;91.50;99860.50;5074290;28;19912;-75
2024/02/19 02:43:09;;;;;;;;;;;;;;;8.03;92.00;99864.44;5072909;28;19920;-77
2024/02/19 02:45:34;;;;;;;;;;;;;;;8.04;91.59;99871.53;5073230;28;19916;-78
2024/02/19 02:48:00;;;;;;;;;;;;;;;8.12;91.80;99864.06;5071955;28;19913;-77
2024/02/19 02:50:25;;;;;;;;;;;;;;;7.91;92.37;99861.28;5072795;28;20388;-77
2024/02/19 02:52:50;;;;;;;;;;;;;;;7.87;93.47;99861.28;5072272;28;19912;-78
2024/02/19 02:55:16;;;;;;;;;;;;;;;7.83;94.22;99862.47;5073818;28;20007;-77
2024/02/19 02:57:41;;;;;;;;;;;;;;;7.85;94.71;99860.88;5072303;28;19922;-77
2024/02/19 03:00:08;;;;;;;;;;;;;;;7.86;94.69;99864.41;5073841;28;20300;-77
2024/02/19 03:02:33;;;;;;;;;;;;;;;7.81;94.91;99862.84;5071884;28;20388;-78
2024/02/19 03:04:59;;;;;;;;;;;;;;;7.86;94.85;99862.44;5072229;28;19916;-76
2024/02/19 03:07:24;;;;;;;;;;;;;;;7.87;95.14;99866.00;5071984;28;19913;-77
2024/02/19 03:09:49;;;;;;;;;;;;;;;7.75;95.55;99865.19;5071746;28;20339;-78
2024/02/19 03:12:15;;;;;;;;;;;;;;;7.71;95.94;99867.16;5072475;28;19912;-78
2024/02/19 03:14:41;;;;;;;;;;;;;;;7.64;97.15;99860.84;5072323;28;19916;-78
2024/02/19 03:17:07;;;;;;;;;;;;;;;7.65;96.80;99862.41;5072024;28;19923;-78
2024/02/19 03:19:32;;;;;;;;;;;;;;;7.60;96.97;99866.31;5071965;28;20399;-77
2024/02/19 03:21:57;;;;;;;;;;;;;;;7.56;97.69;99871.00;5071649;28;19912;-78
2024/02/19 03:24:23;;;;;;;;;;;;;;;7.56;98.29;99879.25;5071809;28;20392;-77
2024/02/19 03:26:49;;;;;;;;;;;;;;;7.59;97.80;99873.00;5072224;28;19954;-78
2024/02/19 03:29:14;;;;;;;;;;;;;;;7.63;97.84;99878.50;5071609;28;19908;-77
2024/02/19 03:31:39;;;;;;;;;;;;;;;7.65;98.37;99881.66;5071682;28;19916;-77
2024/02/19 03:34:05;;;;;;;;;;;;;;;7.67;98.59;99880.09;5071735;28;19939;-78
2024/02/19 03:36:30;;;;;;;;;;;;;;;7.68;98.02;99880.88;5071324;28;19912;-77
2024/02/19 03:38:55;;;;;;;;;;;;;;;7.60;98.04;99879.25;5071277;28;20379;-78
2024/02/19 03:41:21;;;;;;;;;;;;;;;7.61;97.98;99880.84;5072477;28;19912;-78
2024/02/19 03:43:46;;;;;;;;;;;;;;;7.56;98.67;99883.97;5071606;28;20427;-78
2024/02/19 03:46:11;;;;;;;;;;;;;;;7.57;98.71;99883.59;5072568;28;19948;-78
2024/02/19 03:48:37;;;;;;;;;;;;;;;7.44;99.51;99884.31;5071462;28;19958;-78
2024/02/19 03:51:02;;;;;;;;;;;;;;;7.46;99.70;99891.00;5071525;28;19912;-77
2024/02/19 03:53:29;;;;;;;;;;;;;;;7.34;100.00;99889.41;5071419;28;19955;-77
2024/02/19 03:55:55;;;;;;;;;;;;;;;7.29;100.00;99878.75;5072797;28;19912;-78
2024/02/19 03:58:21;;;;;;;;;;;;;;;7.33;100.00;99874.06;5070737;28;20445;-78
2024/02/19 04:00:46;;;;;;;;;;;;;;;7.26;100.00;99876.78;5072375;28;19912;-77
2024/02/19 04:03:11;;;;;;;;;;;;;;;7.29;100.00;99872.47;5071114;28;19935;-77
2024/02/19 04:05:36;;;;;;;;;;;;;;;7.32;100.00;99869.75;5071142;28;19918;-78
2024/02/19 04:08:02;;;;;;;;;;;;;;;7.38;100.00;99877.59;5057436;28;19969;-77
2024/02/19 04:10:27;;;;;;;;;;;;;;;7.39;100.00;99873.69;5070951;28;20303;-77
2024/02/19 04:12:52;;;;;;;;;;;;;;;7.39;100.00;99868.19;5070713;28;19913;-78
2024/02/19 04:15:18;;;;;;;;;;;;;;;7.47;100.00;99856.84;5070891;28;19912;-78
2024/02/19 04:17:45;;;;;;;;;;;;;;;7.53;100.00;99871.00;5070833;28;19913;-77
2024/02/19 04:20:11;;;;;;;;;;;;;;;7.16;100.00;99811.56;5070985;28;19995;-77
2024/02/19 04:22:36;;;;;;;;;;;;;;;7.63;100.00;99862.00;5058837;28;20007;-77
2024/02/19 04:25:01;;;;;;;;;;;;;;;7.66;100.00;99861.22;5070847;28;19919;-78
2024/02/19 04:27:26;;;;;;;;;;;;;;;7.57;100.00;99861.59;5070280;28;19913;-77
2024/02/19 04:29:52;;;;;;;;;;;;;;;7.49;100.00;99857.22;5070818;28;19946;-79
2024/02/19 04:32:17;;;;;;;;;;;;;;;7.57;100.00;99861.59;5071797;28;20610;-77
2024/02/19 04:34:42;;;;;;;;;;;;;;;7.69;100.00;99863.19;5070678;28;19965;-78
2024/02/19 04:37:08;;;;;;;;;;;;;;;7.78;99.58;99860.84;5070072;28;20384;-77
2024/02/19 04:39:33;;;;;;;;;;;;;;;7.83;99.13;99851.44;5070759;28;19999;-78
2024/02/19 04:41:59;;;;;;;;;;;;;;;7.82;99.09;99860.88;5071659;28;19916;-76
2024/02/19 04:44:24;;;;;;;;;;;;;;;7.71;99.35;99849.84;5070645;28;19916;-78
2024/02/19 04:46:49;;;;;;;;;;;;;;;7.71;99.46;99852.59;5070470;28;20435;-78
2024/02/19 04:49:15;;;;;;;;;;;;;;;7.74;99.51;99851.81;5070474;28;19965;-79
2024/02/19 04:51:40;;;;;;;;;;;;;;;7.72;99.63;99854.16;5070162;28;19999;-78
2024/02/19 04:54:05;;;;;;;;;;;;;;;7.77;99.59;99859.31;5071628;28;19916;-78
2024/02/19 04:56:31;;;;;;;;;;;;;;;7.78;99.37;99858.88;5071756;28;19995;-78
2024/02/19 04:58:56;;;;;;;;;;;;;;;7.78;99.50;99866.34;5070649;28;20354;-78
2024/02/19 05:01:21;;;;;;;;;;;;;;;7.78;99.19;99865.59;5070664;28;20391;-78
2024/02/19 05:03:48;;;;;;;;;;;;;;;7.70;99.65;99865.56;5070430;28;19912;-77
2024/02/19 05:06:13;;;;;;;;;;;;;;;7.69;99.48;99875.00;5070366;28;20015;-78
2024/02/19 05:08:39;;;;;;;;;;;;;;;7.65;99.78;99865.94;5070074;28;20428;-77
2024/02/19 05:11:04;;;;;;;;;;;;;;;7.65;100.00;99879.69;5074870;28;19916;-78
2024/02/19 05:13:33;;;;;;;;;;;;;;;7.71;100.00;99869.91;5074435;28;20292;-78
2024/02/19 05:15:58;;;;;;;;;;;;;;;7.62;100.00;99877.72;5074605;28;19917;-78
2024/02/19 05:18:23;;;;;;;;;;;;;;;7.64;100.00;99874.59;5075506;28;20018;-78
2024/02/19 05:20:49;;;;;;;;;;;;;;;7.67;100.00;99874.59;5073971;28;20015;-77
2024/02/19 05:23:14;;;;;;;;;;;;;;;7.68;100.00;99872.63;5074338;28;19913;-77
2024/02/19 05:25:39;;;;;;;;;;;;;;;7.58;100.00;99874.16;5057177;28;19916;-77
2024/02/19 05:28:05;;;;;;;;;;;;;;;7.65;100.00;99876.16;5074113;28;20081;-77
2024/02/19 05:30:30;;;;;;;;;;;;;;;7.70;100.00;99881.28;5075247;28;20300;-78
2024/02/19 05:32:55;;;;;;;;;;;;;;;7.64;100.00;99878.13;5074050;28;20380;-77
2024/02/19 05:35:20;;;;;;;;;;;;;;;7.65;100.00;99882.44;5073799;28;19913;-77
2024/02/19 05:37:46;;;;;;;;;;;;;;;7.59;100.00;99878.50;5074011;28;19928;-79
2024/02/19 05:40:12;;;;;;;;;;;;;;;7.60;100.00;99890.25;5073457;28;19978;-78
2024/02/19 05:42:37;;;;;;;;;;;;;;;7.65;100.00;99884.41;5073982;28;19955;-79
2024/02/19 05:45:03;;;;;;;;;;;;;;;7.69;100.00;99883.25;5073586;28;20007;-79
2024/02/19 05:47:28;;;;;;;;;;;;;;;7.69;99.99;99883.25;5074996;28;19920;-77
2024/02/19 05:49:54;;;;;;;;;;;;;;;7.57;100.00;99885.56;5073537;28;19960;-77
2024/02/19 05:52:19;;;;;;;;;;;;;;;7.58;100.00;99882.41;5073807;28;19916;-77
2024/02/19 05:54:44;;;;;;;;;;;;;;;7.56;100.00;99889.47;5073183;28;19916;-78
2024/02/19 05:57:10;;;;;;;;;;;;;;;7.64;100.00;99880.09;5073431;28;19943;-78
2024/02/19 05:59:35;;;;;;;;;;;;;;;7.68;100.00;99880.88;5073754;28;19956;-78
2024/02/19 06:02:01;;;;;;;;;;;;;;;7.61;100.00;99880.84;5074559;28;20312;-78
2024/02/19 06:04:26;;;;;;;;;;;;;;;7.70;100.00;99878.53;5073264;28;19912;-78
2024/02/19 06:06:52;;;;;;;;;;;;;;;7.74;100.00;99885.63;5074588;28;19916;-77
2024/02/19 06:09:17;;;;;;;;;;;;;;;7.66;100.00;99885.97;5073096;28;19960;-78
2024/02/19 06:11:45;;;;;;;;;;;;;;;7.71;100.00;99882.88;5074411;28;19916;-78
2024/02/19 06:14:11;;;;;;;;;;;;;;;7.74;100.00;99884.81;5073239;28;19912;-78
2024/02/19 06:16:36;;;;;;;;;;;;;;;7.73;100.00;99884.03;5073343;28;20399;-77
2024/02/19 06:19:02;;;;;;;;;;;;;;;7.81;99.95;99887.59;5074249;28;20452;-77
2024/02/19 06:21:27;;;;;;;;;;;;;;;7.84;99.14;99889.56;5073912;28;19919;-78
2024/02/19 06:23:53;;;;;;;;;;;;;;;7.89;98.78;99880.16;5072758;28;19916;-77
2024/02/19 06:26:18;;;;;;;;;;;;;;;7.83;98.61;99885.25;5074097;28;19916;-80
2024/02/19 06:28:43;;;;;;;;;;;;;;;7.90;98.87;99885.25;5072784;28;20384;-79
2024/02/19 06:31:08;;;;;;;;;;;;;;;7.85;98.80;99885.63;5071830;28;19923;-77
2024/02/19 06:33:34;;;;;;;;;;;;;;;7.84;99.25;99884.06;5072393;28;19916;-79
2024/02/19 06:35:59;;;;;;;;;;;;;;;7.87;99.28;99882.50;5056472;28;20016;-78
2024/02/19 06:38:24;;;;;;;;;;;;;;;7.91;99.11;99877.78;5073144;28;20376;-79
2024/02/19 06:40:50;;;;;;;;;;;;;;;7.92;98.90;99882.13;5072494;28;19923;-77
2024/02/19 06:43:16;;;;;;;;;;;;;;;7.94;98.51;99877.03;5072975;28;20482;-76
2024/02/19 06:45:41;;;;;;;;;;;;;;;7.96;98.72;99883.69;5072691;28;19916;-78
2024/02/19 06:48:07;;;;;;;;;;;;;;;8.01;97.98;99886.09;5056226;28;19960;-76
2024/02/19 06:50:32;;;;;;;;;;;;;;;8.04;98.35;99884.50;5073616;28;19912;-76
2024/02/19 06:52:57;;;;;;;;;;;;;;;8.09;98.57;99884.13;5073850;28;19944;-77
2024/02/19 06:55:22;;;;;;;;;;;;;;;8.09;98.02;99886.88;5071947;28;19927;-76
2024/02/19 06:57:48;;;;;;;;;;;;;;;8.14;97.69;99878.22;5072222;28;19995;-75
2024/02/19 07:00:13;;;;;;;;;;;;;;;8.22;96.90;99873.50;5072265;28;19920;-78
2024/02/19 07:02:38;;;;;;;;;;;;;;;8.26;96.69;99877.84;5055307;28;19965;-78
2024/02/19 07:05:05;;;;;;;;;;;;;;;8.33;96.77;99872.38;5071806;28;19923;-78
2024/02/19 07:07:32;;;;;;;;;;;;;;;8.30;95.91;99878.69;5055646;28;19963;-77
2024/02/19 07:09:57;;;;;;;;;;;;;;;8.31;96.24;99874.75;5055440;28;20449;-79
2024/02/19 07:12:22;;;;;;;;;;;;;;;8.35;95.60;99881.03;5073160;28;19916;-79
2024/02/19 07:14:48;;;;;;;;;;;;;;;8.46;95.40;99875.53;5071999;28;19915;-80
2024/02/19 07:17:13;;;;;;;;;;;;;;;8.54;94.63;99875.16;5072157;28;19916;-77
2024/02/19 07:19:38;;;;;;;;;;;;;;;8.57;94.13;99871.59;5072127;28;19916;-78
2024/02/19 07:22:04;;;;;;;;;;;;;;;8.67;93.71;99869.22;5071914;28;20006;-76
2024/02/19 07:24:30;;;;;;;;;;;;;;;8.68;93.01;99868.06;5055053;28;20384;-79
2024/02/19 07:26:57;;;;;;;;;;;;;;;8.73;92.45;99873.16;5071536;28;20065;-77
2024/02/19 07:29:22;;;;;;;;;;;;;;;8.61;92.40;99862.56;5071398;28;20298;-77
2024/02/19 07:31:48;;;;;;;;;;;;;;;8.55;93.56;99879.47;5070817;28;19923;-77
2024/02/19 07:34:13;;;;;;;;;;;;;;;8.53;93.33;99870.03;5070862;28;20514;-76
2024/02/19 07:36:38;;;;;;;;;;;;;;;8.62;93.48;99878.66;5072509;28;19912;-76
2024/02/19 07:39:03;;;;;;;;;;;;;;;8.46;94.04;99867.25;5072589;28;20302;-78
2024/02/19 07:41:29;;;;;;;;;;;;;;;8.45;94.46;99868.44;5070776;28;19920;-79
2024/02/19 07:43:54;;;;;;;;;;;;;;;8.50;94.06;99870.78;5072376;28;20364;-77
2024/02/19 07:46:21;;;;;;;;;;;;;;;8.48;94.20;99875.94;5070705;28;19969;-77
2024/02/19 07:48:47;;;;;;;;;;;;;;;8.39;95.12;99870.81;5070142;28;19916;-76
2024/02/19 07:51:14;;;;;;;;;;;;;;;8.58;95.28;99875.13;5070354;28;20453;-78
2024/02/19 07:53:40;;;;;;;;;;;;;;;8.66;93.67;99870.41;5068953;28;19913;-77
2024/02/19 07:56:06;;;;;;;;;;;;;;;8.37;93.95;99873.19;5068703;28;20002;-77
2024/02/19 07:58:32;;;;;;;;;;;;;;;8.46;95.00;99868.06;5070326;28;19910;-77
2024/02/19 08:00:57;;;;;;;;;;;;;;;8.61;94.97;99862.56;5068996;28;19916;-77
2024/02/19 08:03:23;;;;;;;;;;;;;;;8.57;94.45;99862.53;5070499;28;20058;-77
2024/02/19 08:05:48;;;;;;;;;;;;;;;8.52;95.57;99860.97;5070407;28;19916;-79
2024/02/19 08:08:17;;;;;;;;;;;;;;;8.68;95.15;99857.03;5070436;28;20436;-79
2024/02/19 08:10:43;;;;;;;;;;;;;;;8.70;94.73;99851.91;5070603;28;20448;-79
2024/02/19 08:13:09;;;;;;;;;;;;;;;8.70;94.03;99866.47;5070713;28;19927;-77
2024/02/19 08:15:37;;;;;;;;;;;;;;;8.61;94.33;99862.56;5070496;28;19908;-78
2024/02/19 08:18:03;;;;;;;;;;;;;;;8.54;94.77;99868.84;5070587;28;19909;-77
2024/02/19 08:20:29;;;;;;;;;;;;;;;8.56;95.63;99861.75;5070284;28;19908;-77
2024/02/19 08:22:54;;;;;;;;;;;;;;;8.62;95.75;99862.13;5071677;28;19916;-78
2024/02/19 08:25:19;;;;;;;;;;;;;;;8.66;95.88;99853.88;5071636;28;20015;-78
2024/02/19 08:27:44;;;;;;;;;;;;;;;8.76;95.14;99861.34;5071691;28;20364;-79
2024/02/19 08:30:10;;;;;;;;;;;;;;;8.85;94.96;99859.78;5071700;28;19919;-79
2024/02/19 08:32:35;;;;;;;;;;;;;;;9.04;94.60;99855.00;5071517;28;20296;-77
2024/02/19 08:35:00;;;;;;;;;;;;;;;9.13;92.47;99852.59;5069705;28;20281;-78
2024/02/19 08:37:25;;;;;;;;;;;;;;;9.20;91.80;99856.13;5070369;28;19955;-79
2024/02/19 08:39:51;;;;;;;;;;;;;;;9.18;92.07;99852.97;5071168;28;19920;-78
2024/02/19 08:42:16;;;;;;;;;;;;;;;9.24;92.38;99854.13;5070095;28;20364;-77
2024/02/19 08:44:41;;;;;;;;;;;;;;;9.16;92.07;99854.56;5071226;28;19908;-77
2024/02/19 08:47:07;;;;;;;;;;;;;;;9.23;91.37;99854.53;5070101;28;20372;-77
2024/02/19 08:49:33;;;;;;;;;;;;;;;9.31;91.27;99851.34;5070270;28;19908;-78
2024/02/19 08:51:58;;;;;;;;;;;;;;;9.25;90.55;99852.16;5071285;28;19913;-77
2024/02/19 08:54:24;;;;;;;;;;;;;;;9.47;89.05;99845.38;5071412;28;19959;-77
2024/02/19 08:56:49;;;;;;;;;;;;;;;9.59;88.46;99847.69;5067543;28;19917;-79
2024/02/19 08:59:15;;;;;;;;;;;;;;;9.65;86.84;99848.84;5071846;28;20026;-80
2024/02/19 09:01:41;;;;;;;;;;;;;;;9.71;87.45;99849.19;5048681;28;19977;-77
2024/02/19 09:04:06;;;;;;;;;;;;;;;9.71;86.56;99847.22;5071552;28;19916;-77
2024/02/19 09:06:31;;;;;;;;;;;;;;;9.59;85.47;99846.91;5050243;28;20292;-78
2024/02/19 09:08:59;;;;;;;;;;;;;;;9.36;86.45;99850.94;5064536;28;19920;-78
2024/02/19 09:11:24;;;;;;;;;;;;;;;9.24;87.20;99848.63;5053822;28;19952;-78
2024/02/19 09:13:49;;;;;;;;;;;;;;;9.12;88.15;99851.03;5070440;28;19943;-78
2024/02/19 09:16:15;;;;;;;;;;;;;;;9.09;88.77;99847.09;5070434;28;19962;-78
2024/02/19 09:18:40;;;;;;;;;;;;;;;9.01;89.32;99858.53;5068493;28;19967;-77
2024/02/19 09:21:06;;;;;;;;;;;;;;;9.12;88.88;99856.53;5067694;28;20402;-79
2024/02/19 09:23:31;;;;;;;;;;;;;;;9.33;89.08;99854.50;5068585;28;19989;-77
2024/02/19 09:25:56;;;;;;;;;;;;;;;9.39;88.32;99854.88;5067680;28;19919;-78
2024/02/19 09:28:22;;;;;;;;;;;;;;;9.01;89.80;99853.81;5068460;28;19912;-77
2024/02/19 09:30:47;;;;;;;;;;;;;;;8.92;90.32;99862.50;5067280;28;20013;-78
2024/02/19 09:33:12;;;;;;;;;;;;;;;9.26;89.50;99853.75;5068640;28;19912;-78
2024/02/19 09:35:37;;;;;;;;;;;;;;;9.43;88.50;99858.41;5069188;28;20008;-78
2024/02/19 09:38:03;;;;;;;;;;;;;;;9.57;86.91;99860.31;5070380;28;19922;-78
2024/02/19 09:40:31;;;;;;;;;;;;;;;9.74;85.66;99857.47;5069241;28;19915;-80
2024/02/19 09:42:56;;;;;;;;;;;;;;;9.82;84.20;99849.16;5069142;28;19919;-79
2024/02/19 09:45:23;;;;;;;;;;;;;;;9.78;83.79;99852.72;5070735;28;19912;-78
2024/02/19 09:47:52;;;;;;;;;;;;;;;9.61;84.72;99852.81;5070508;28;19908;-79
2024/02/19 09:50:17;;;;;;;;;;;;;;;9.46;85.44;99848.56;5070727;28;19908;-79
2024/02/19 09:52:44;;;;;;;;;;;;;;;9.55;85.26;99841.41;5070394;28;19912;-81
2024/02/19 09:55:10;;;;;;;;;;;;;;;9.75;83.92;99848.00;5069783;28;19995;-79
2024/02/19 09:57:35;;;;;;;;;;;;;;;9.82;82.97;99849.16;5073930;28;19959;-79
2024/02/19 10:00:04;;;;;;;;;;;;;;;9.59;84.11;99841.38;5056173;28;19916;-76
2024/02/19 10:02:30;;;;;;;;;;;;;;;9.31;85.90;99834.81;5072188;28;20315;-79
2024/02/19 10:04:55;;;;;;;;;;;;;;;9.22;87.42;99839.19;5074040;28;20003;-79
2024/02/19 10:07:20;;;;;;;;;;;;;;;9.48;85.78;99833.16;5072635;28;20368;-78
2024/02/19 10:09:49;;;;;;;;;;;;;;;9.55;85.81;99830.38;5072961;28;20407;-79
2024/02/19 10:12:15;;;;;;;;;;;;;;;9.67;85.02;99827.16;5052041;28;19924;-80
2024/02/19 10:14:41;;;;;;;;;;;;;;;9.69;85.29;99830.31;5072966;28;19973;-79
2024/02/19 10:17:06;;;;;;;;;;;;;;;9.76;84.21;99827.47;5072379;28;19920;-78
2024/02/19 10:19:32;;;;;;;;;;;;;;;9.78;83.26;99827.09;5072175;28;19913;-79
2024/02/19 10:21:58;;;;;;;;;;;;;;;9.89;83.32;99830.56;5072233;28;19912;-79
2024/02/19 10:24:23;;;;;;;;;;;;;;;9.94;84.53;99823.84;5072558;28;19908;-77
2024/02/19 10:26:48;;;;;;;;;;;;;;;9.89;83.64;99824.25;5071975;28;19908;-78
2024/02/19 10:29:14;;;;;;;;;;;;;;;9.87;83.40;99823.88;5073467;28;19946;-79
2024/02/19 10:31:41;;;;;;;;;;;;;;;9.72;83.84;99823.97;5073393;28;19915;-79
2024/02/19 10:34:08;;;;;;;;;;;;;;;9.68;84.93;99816.91;5070682;28;19999;-78
2024/02/19 10:36:34;;;;;;;;;;;;;;;9.64;84.94;99807.88;5070009;28;19952;-78
2024/02/19 10:38:59;;;;;;;;;;;;;;;9.72;86.09;99812.94;5069867;28;19943;-78
2024/02/19 10:41:25;;;;;;;;;;;;;;;9.78;84.77;99802.25;5069758;28;19912;-79
2024/02/19 10:43:53;;;;;;;;;;;;;;;9.82;83.42;99799.47;5071335;28;20425;-77
2024/02/19 10:46:22;;;;;;;;;;;;;;;9.53;84.90;99799.63;5071118;28;19931;-78
2024/02/19 11:13:08;;;;;;;;;;;;;;;9.03;96.54;99776.25;5129921;27;19912;-79
2024/02/19 11:15:39;;;;;;;;;;;;;;;8.97;95.16;99773.13;5125657;28;20377;-77
2024/02/19 11:18:14;;;;;;;;;;;;;;;9.07;95.43;99768.75;5122761;28;20388;-78
2024/02/19 11:20:40;;;;;;;;;;;;;;;8.98;95.37;99764.44;5123462;28;19923;-79
2024/02/19 11:23:05;;;;;;;;;;;;;;;8.90;96.24;99768.41;5128944;27;20445;-78
2024/02/19 11:25:30;;;;;;;;;;;;;;;9.10;95.03;99759.69;5129061;28;19958;-80
2024/02/19 11:27:57;;;;;;;;;;;;;;;9.14;94.41;99761.22;5128378;28;19947;-78
2024/02/19 11:30:23;;;;;;;;;;;;;;;9.04;95.51;99756.56;5129570;27;20277;-77
2024/02/19 11:32:57;;;;;;;;;;;;;;;9.22;94.12;99748.97;5128840;27;20021;-77
2024/02/19 11:35:23;;;;;;;;;;;;;;;9.32;93.11;99752.88;5126232;28;19912;-78
2024/02/19 11:37:48;;;;;;;;;;;;;;;9.40;91.88;99744.13;5118444;28;19926;-78
2024/02/19 11:40:13;;;;;;;;;;;;;;;9.48;90.95;99738.59;5123348;27;20006;-78
2024/02/19 11:42:39;;;;;;;;;;;;;;;9.58;90.12;99740.50;5127647;28;19951;-77
2024/02/19 11:45:04;;;;;;;;;;;;;;;9.57;90.11;99736.97;5128723;27;20362;-78
2024/02/19 11:47:29;;;;;;;;;;;;;;;9.67;88.72;99732.53;5127418;28;20361;-78
2024/02/19 11:49:56;;;;;;;;;;;;;;;9.71;88.46;99736.06;5131222;28;20440;-78
2024/02/19 11:52:21;;;;;;;;;;;;;;;9.91;87.37;99725.25;5120172;27;19927;-80
2024/02/19 11:54:52;;;;;;;;;;;;;;;9.97;85.78;99729.16;5115278;28;19912;-80
2024/02/19 11:57:17;;;;;;;;;;;;;;;9.99;85.38;99727.56;5143701;27;20057;-79
2024/02/19 11:59:45;;;;;;;;;;;;;;;10.16;83.66;99725.84;5120327;27;20003;-78
2024/02/19 12:02:10;;;;;;;;;;;;;;;9.92;84.11;99715.81;5126121;27;19927;-77
2024/02/19 12:04:36;;;;;;;;;;;;;;;10.07;83.53;99720.00;5111436;27;20308;-78
2024/02/19 12:07:02;;;;;;;;;;;;;;;10.06;82.90;99704.66;5107359;28;19977;-78
2024/02/19 12:09:27;;;;;;;;;;;;;;;9.88;85.32;99712.28;5110066;28;19972;-78
2024/02/19 12:11:52;;;;;;;;;;;;;;;10.12;84.62;99700.25;5115448;27;20356;-78
2024/02/19 12:14:19;;;;;;;;;;;;;;;10.24;83.69;99699.75;5092474;28;20444;-78
2024/02/19 12:16:45;;;;;;;;;;;;;;;10.17;83.42;99702.59;5093392;28;19922;-77
2024/02/19 12:19:11;;;;;;;;;;;;;;;10.16;83.10;99693.53;5094645;28;19916;-78
2024/02/19 12:21:36;;;;;;;;;;;;;;;10.30;82.40;99695.38;5105305;28;20376;-78
2024/02/19 12:24:01;;;;;;;;;;;;;;;10.27;81.66;99693.41;5110637;28;19916;-80
2024/02/19 12:26:27;;;;;;;;;;;;;;;10.36;82.16;99688.19;5103603;28;19973;-79
2024/02/19 12:28:52;;;;;;;;;;;;;;;10.27;82.89;99687.88;5109851;28;19995;-79
2024/02/19 12:31:18;;;;;;;;;;;;;;;10.19;83.00;99681.63;5094362;28;19920;-79
2024/02/19 12:33:43;;;;;;;;;;;;;;;10.40;80.19;99680.66;5110128;28;19939;-78
2024/02/19 12:36:10;;;;;;;;;;;;;;;10.48;80.24;99676.63;5104399;28;19992;-80
2024/02/19 12:38:41;;;;;;;;;;;;;;;10.55;80.62;99676.50;5092958;28;19916;-78
2024/02/19 12:41:06;;;;;;;;;;;;;;;10.55;80.76;99675.72;5104383;28;20324;-78
2024/02/19 12:43:32;;;;;;;;;;;;;;;10.68;79.22;99673.22;5098526;28;20392;-78
2024/02/19 12:45:57;;;;;;;;;;;;;;;10.59;80.40;99666.22;5115069;28;19916;-79
2024/02/19 12:48:22;;;;;;;;;;;;;;;10.62;80.21;99664.59;5113243;28;19916;-78
2024/02/19 12:50:47;;;;;;;;;;;;;;;10.71;79.38;99661.34;5113451;28;19916;-78
2024/02/19 12:53:13;;;;;;;;;;;;;;;10.69;78.57;99658.19;5108919;28;19916;-78
2024/02/19 12:55:40;;;;;;;;;;;;;;;10.42;77.51;99658.16;5103724;28;20395;-76
2024/02/19 12:58:05;;;;;;;;;;;;;;;10.38;77.81;99657.38;5099072;28;20392;-78
2024/02/19 13:00:31;;;;;;;;;;;;;;;10.11;79.98;99647.00;5100025;28;19916;-76
2024/02/19 13:02:56;;;;;;;;;;;;;;;9.99;79.89;99644.75;5103701;28;20373;-79
2024/02/19 13:05:21;;;;;;;;;;;;;;;9.43;83.25;99642.47;5100855;28;19912;-77
2024/02/19 13:07:47;;;;;;;;;;;;;;;9.47;84.89;99634.94;5093068;28;19923;-78
2024/02/19 13:10:13;;;;;;;;;;;;;;;9.67;84.28;99635.97;5090543;28;19912;-78